sensor_id;sensor_type;location;lat;lon;timestamp;pressure;altitude;pressure_sealevel;temperature;humidity
65190;BME280;51777;53.570;9.984;2022-09-09T00:03:47;100605.75;;;14.36;100.00
65190;BME280;51777;53.570;9.984;2022-09-09T00:06:30;100598.78;;;14.37;100.00
65190;BME280;51777;53.570;9.984;2022-09-09T00:09:10;100604.63;;;14.39;100.00
65190;BME280;51777;53.570;9.984;2022-09-09T00:14:11;100599.06;;;14.42;100.00
65190;BME280;51777;53.570;9.984;2022-09-09T00:16:42;100599.56;;;14.46;100.00
65190;BME280;51777;53.570;9.984;2022-09-09T00:19:20;100597.41;;;14.49;100.00
65190;BME280;51777;53.570;9.984;2022-09-09T00:22:15;100603.91;;;14.53;100.00
65190;BME280;51777;53.570;9.984;2022-09-09T00:24:51;100607.78;;;14.57;100.00
65190;BME280;51777;53.570;9.984;2022-09-09T00:27:27;100603.19;;;14.59;100.00
65190;BME280;51777;53.570;9.984;2022-09-09T00:30:26;100607.59;;;14.59;100.00
65190;BME280;51777;53.570;9.984;2022-09-09T00:32:59;100609.03;;;14.61;100.00
65190;BME280;51777;53.570;9.984;2022-09-09T00:35:42;100601.69;;;14.65;100.00
65190;BME280;51777;53.570;9.984;2022-09-09T00:38:23;100605.75;;;14.67;100.00
65190;BME280;51777;53.570;9.984;2022-09-09T00:40:54;100603.13;;;14.67;100.00
65190;BME280;51777;53.570;9.984;2022-09-09T00:43:29;100601.97;;;14.70;100.00
65190;BME280;51777;53.570;9.984;2022-09-09T00:48:23;100600.81;;;14.73;100.00
65190;BME280;51777;53.570;9.984;2022-09-09T00:50:57;100601.78;;;14.72;100.00
65190;BME280;51777;53.570;9.984;2022-09-09T00:56:36;100600.81;;;14.73;100.00
65190;BME280;51777;53.570;9.984;2022-09-09T00:59:14;100600.81;;;14.73;100.00
65190;BME280;51777;53.570;9.984;2022-09-09T01:01:43;100600.00;;;14.72;100.00
65190;BME280;51777;53.570;9.984;2022-09-09T01:04:13;100600.00;;;14.72;100.00
65190;BME280;51777;53.570;9.984;2022-09-09T01:06:43;100603.75;;;14.69;100.00
65190;BME280;51777;53.570;9.984;2022-09-09T01:09:34;100597.47;;;14.64;100.00
65190;BME280;51777;53.570;9.984;2022-09-09T01:12:15;100601.41;;;14.60;100.00
65190;BME280;51777;53.570;9.984;2022-09-09T01:14:45;100600.16;;;14.56;100.00
65190;BME280;51777;53.570;9.984;2022-09-09T01:17:19;100594.63;;;14.51;100.00
65190;BME280;51777;53.570;9.984;2022-09-09T01:20:02;100597.59;;;14.48;100.00
65190;BME280;51777;53.570;9.984;2022-09-09T01:28:30;100603.00;;;14.38;100.00
65190;BME280;51777;53.570;9.984;2022-09-09T01:30:57;100602.53;;;14.34;100.00
65190;BME280;51777;53.570;9.984;2022-09-09T01:33:23;100596.53;;;14.34;100.00
65190;BME280;51777;53.570;9.984;2022-09-09T01:35:55;100601.38;;;14.37;100.00
65190;BME280;51777;53.570;9.984;2022-09-09T01:38:23;100603.97;;;14.37;100.00
65190;BME280;51777;53.570;9.984;2022-09-09T01:40:50;100599.47;;;14.31;100.00
65190;BME280;51777;53.570;9.984;2022-09-09T01:43:19;100597.06;;;14.29;100.00
65190;BME280;51777;53.570;9.984;2022-09-09T01:45:46;100591.03;;;14.29;100.00
65190;BME280;51777;53.570;9.984;2022-09-09T01:48:14;100590.25;;;14.28;100.00
65190;BME280;51777;53.570;9.984;2022-09-09T01:50:40;100595.63;;;14.27;100.00
65190;BME280;51777;53.570;9.984;2022-09-09T01:53:05;100594.94;;;14.25;100.00
65190;BME280;51777;53.570;9.984;2022-09-09T01:55:35;100591.91;;;14.21;100.00
65190;BME280;51777;53.570;9.984;2022-09-09T02:01:06;100588.53;;;14.13;100.00
65190;BME280;51777;53.570;9.984;2022-09-09T02:03:35;100588.88;;;14.09;100.00
65190;BME280;51777;53.570;9.984;2022-09-09T02:08:47;100591.19;;;14.04;100.00
65190;BME280;51777;53.570;9.984;2022-09-09T02:11:16;100592.34;;;14.02;100.00
65190;BME280;51777;53.570;9.984;2022-09-09T02:13:44;100582.91;;;14.01;100.00
65190;BME280;51777;53.570;9.984;2022-09-09T02:16:15;100588.28;;;13.99;100.00
65190;BME280;51777;53.570;9.984;2022-09-09T02:19:11;100584.25;;;13.97;100.00
65190;BME280;51777;53.570;9.984;2022-09-09T02:21:42;100589.44;;;13.97;100.00
65190;BME280;51777;53.570;9.984;2022-09-09T02:24:08;100585.41;;;13.94;100.00
65190;BME280;51777;53.570;9.984;2022-09-09T02:26:39;100586.38;;;13.93;100.00
65190;BME280;51777;53.570;9.984;2022-09-09T02:29:09;100582.97;;;13.93;100.00
65190;BME280;51777;53.570;9.984;2022-09-09T02:31:38;100589.34;;;13.90;100.00
65190;BME280;51777;53.570;9.984;2022-09-09T02:34:05;100589.34;;;13.90;100.00
65190;BME280;51777;53.570;9.984;2022-09-09T02:36:35;100589.34;;;13.90;100.00
65190;BME280;51777;53.570;9.984;2022-09-09T02:39:02;100585.25;;;13.88;100.00
65190;BME280;51777;53.570;9.984;2022-09-09T02:41:32;100587.72;;;13.89;100.00
65190;BME280;51777;53.570;9.984;2022-09-09T02:43:58;100580.06;;;13.88;100.00
65190;BME280;51777;53.570;9.984;2022-09-09T02:49:09;100575.53;;;13.90;100.00
65190;BME280;51777;53.570;9.984;2022-09-09T02:52:27;100573.75;;;13.90;100.00
65190;BME280;51777;53.570;9.984;2022-09-09T02:54:35;100580.72;;;13.90;100.00
65190;BME280;51777;53.570;9.984;2022-09-09T02:59:31;100587.72;;;13.89;100.00
65190;BME280;51777;53.570;9.984;2022-09-09T03:01:56;100592.25;;;13.87;100.00
65190;BME280;51777;53.570;9.984;2022-09-09T03:04:22;100586.41;;;13.85;100.00
65190;BME280;51777;53.570;9.984;2022-09-09T03:06:49;100583.00;;;13.85;100.00
65190;BME280;51777;53.570;9.984;2022-09-09T03:09:15;100581.22;;;13.85;100.00
65190;BME280;51777;53.570;9.984;2022-09-09T03:11:40;100579.59;;;13.84;100.00
65190;BME280;51777;53.570;9.984;2022-09-09T03:14:05;100592.78;;;13.82;100.00
65190;BME280;51777;53.570;9.984;2022-09-09T03:16:31;100586.75;;;13.82;100.00
65190;BME280;51777;53.570;9.984;2022-09-09T03:18:58;100594.75;;;13.80;100.00
65190;BME280;51777;53.570;9.984;2022-09-09T03:21:23;100588.09;;;13.78;100.00
65190;BME280;51777;53.570;9.984;2022-09-09T03:23:49;100594.28;;;13.77;100.00
65190;BME280;51777;53.570;9.984;2022-09-09T03:26:15;100590.19;;;13.74;100.00
65190;BME280;51777;53.570;9.984;2022-09-09T03:28:41;100584.38;;;13.72;100.00
65190;BME280;51777;53.570;9.984;2022-09-09T03:31:07;100584.53;;;13.71;100.00
65190;BME280;51777;53.570;9.984;2022-09-09T03:33:36;100582.28;;;13.68;100.00
65190;BME280;51777;53.570;9.984;2022-09-09T03:36:03;100586.03;;;13.65;100.00
65190;BME280;51777;53.570;9.984;2022-09-09T03:38:28;100578.25;;;13.65;100.00
65190;BME280;51777;53.570;9.984;2022-09-09T03:40:56;100576.78;;;13.63;100.00
65190;BME280;51777;53.570;9.984;2022-09-09T03:43:26;100583.94;;;13.61;100.00
65190;BME280;51777;53.570;9.984;2022-09-09T03:45:52;100581.69;;;13.58;100.00
65190;BME280;51777;53.570;9.984;2022-09-09T03:48:18;100585.25;;;13.57;100.00
65190;BME280;51777;53.570;9.984;2022-09-09T03:50:49;100593.22;;;13.55;100.00
65190;BME280;51777;53.570;9.984;2022-09-09T03:53:16;100587.38;;;13.53;100.00
65190;BME280;51777;53.570;9.984;2022-09-09T03:55:46;100583.19;;;13.52;100.00
65190;BME280;51777;53.570;9.984;2022-09-09T03:58:12;100585.09;;;13.50;100.00
65190;BME280;51777;53.570;9.984;2022-09-09T04:00:38;100593.72;;;13.50;100.00
65190;BME280;51777;53.570;9.984;2022-09-09T04:03:10;100592.09;;;13.49;100.00
65190;BME280;51777;53.570;9.984;2022-09-09T04:05:36;100598.09;;;13.50;100.00
65190;BME280;51777;53.570;9.984;2022-09-09T04:08:08;100601.50;;;13.50;100.00
65190;BME280;51777;53.570;9.984;2022-09-09T04:10:34;100594.69;;;13.49;100.00
65190;BME280;51777;53.570;9.984;2022-09-09T04:13:03;100599.88;;;13.49;100.00
65190;BME280;51777;53.570;9.984;2022-09-09T04:15:29;100596.47;;;13.49;100.00
65190;BME280;51777;53.570;9.984;2022-09-09T04:17:54;100600.88;;;13.48;100.00
65190;BME280;51777;53.570;9.984;2022-09-09T04:20:20;100606.06;;;13.48;100.00
65190;BME280;51777;53.570;9.984;2022-09-09T04:22:47;100604.63;;;13.46;100.00
65190;BME280;51777;53.570;9.984;2022-09-09T04:25:12;100606.41;;;13.45;100.00
65190;BME280;51777;53.570;9.984;2022-09-09T04:27:38;100601.38;;;13.44;100.00
65190;BME280;51777;53.570;9.984;2022-09-09T04:30:03;100612.56;;;13.44;100.00
65190;BME280;51777;53.570;9.984;2022-09-09T04:32:29;100616.97;;;13.44;100.00
65190;BME280;51777;53.570;9.984;2022-09-09T04:34:57;100601.22;;;13.45;100.00
65190;BME280;51777;53.570;9.984;2022-09-09T04:37:22;100612.22;;;13.47;100.00
65190;BME280;51777;53.570;9.984;2022-09-09T04:39:50;100600.53;;;13.51;100.00
65190;BME280;51777;53.570;9.984;2022-09-09T04:42:15;100607.66;;;13.58;100.00
65190;BME280;51777;53.570;9.984;2022-09-09T04:44:41;100612.34;;;13.62;100.00
65190;BME280;51777;53.570;9.984;2022-09-09T04:47:07;100616.69;;;13.70;100.00
65190;BME280;51777;53.570;9.984;2022-09-09T04:49:32;100624.78;;;13.75;100.00
65190;BME280;51777;53.570;9.984;2022-09-09T04:51:57;100621.06;;;13.77;100.00
65190;BME280;51777;53.570;9.984;2022-09-09T04:54:23;100619.91;;;13.80;100.00
65190;BME280;51777;53.570;9.984;2022-09-09T04:56:50;100621.53;;;13.81;100.00
65190;BME280;51777;53.570;9.984;2022-09-09T04:59:15;100619.56;;;13.83;100.00
65190;BME280;51777;53.570;9.984;2022-09-09T05:01:41;100626.56;;;13.82;100.00
65190;BME280;51777;53.570;9.984;2022-09-09T05:04:07;100626.72;;;13.81;100.00
65190;BME280;51777;53.570;9.984;2022-09-09T05:06:33;100629.50;;;13.79;100.00
65190;BME280;51777;53.570;9.984;2022-09-09T05:09:00;100621.88;;;13.78;100.00
65190;BME280;51777;53.570;9.984;2022-09-09T05:11:27;100622.84;;;13.77;100.00
65190;BME280;51777;53.570;9.984;2022-09-09T05:13:53;100624.97;;;13.73;100.00
65190;BME280;51777;53.570;9.984;2022-09-09T05:16:20;100632.94;;;13.72;100.00
65190;BME280;51777;53.570;9.984;2022-09-09T05:18:46;100630.16;;;13.73;100.00
65190;BME280;51777;53.570;9.984;2022-09-09T05:21:14;100624.97;;;13.73;100.00
65190;BME280;51777;53.570;9.984;2022-09-09T05:23:52;100626.25;;;13.77;100.00
65190;BME280;51777;53.570;9.984;2022-09-09T05:26:20;100626.72;;;13.81;100.00
65190;BME280;51777;53.570;9.984;2022-09-09T05:28:46;100627.19;;;13.85;100.00
65190;BME280;51777;53.570;9.984;2022-09-09T05:31:13;100636.13;;;13.90;100.00
65190;BME280;51777;53.570;9.984;2022-09-09T05:33:41;100639.00;;;13.95;100.00
65190;BME280;51777;53.570;9.984;2022-09-09T05:36:19;100640.91;;;14.01;100.00
65190;BME280;51777;53.570;9.984;2022-09-09T05:38:45;100641.06;;;14.08;100.00
65190;BME280;51777;53.570;9.984;2022-09-09T05:41:11;100644.59;;;14.15;100.00
65190;BME280;51777;53.570;9.984;2022-09-09T05:43:38;100649.09;;;14.21;100.00
65190;BME280;51777;53.570;9.984;2022-09-09T05:46:23;100656.88;;;14.29;100.00
65190;BME280;51777;53.570;9.984;2022-09-09T05:48:49;100656.00;;;14.37;100.00
65190;BME280;51777;53.570;9.984;2022-09-09T05:51:18;100657.94;;;14.43;100.00
65190;BME280;51777;53.570;9.984;2022-09-09T05:53:45;100663.75;;;14.53;100.00
65190;BME280;51777;53.570;9.984;2022-09-09T05:56:13;100664.16;;;14.65;100.00
65190;BME280;51777;53.570;9.984;2022-09-09T05:58:43;100661.66;;;14.72;100.00
65190;BME280;51777;53.570;9.984;2022-09-09T06:01:23;100663.28;;;14.73;100.00
65190;BME280;51777;53.570;9.984;2022-09-09T06:03:50;100660.97;;;14.78;100.00
65190;BME280;51777;53.570;9.984;2022-09-09T06:06:18;100669.78;;;14.77;100.00
65190;BME280;51777;53.570;9.984;2022-09-09T06:08:46;100675.44;;;14.80;100.00
65190;BME280;51777;53.570;9.984;2022-09-09T06:11:14;100675.25;;;14.82;100.00
65190;BME280;51777;53.570;9.984;2022-09-09T06:13:40;100677.13;;;14.88;100.00
65190;BME280;51777;53.570;9.984;2022-09-09T06:16:11;100680.03;;;14.93;100.00
65190;BME280;51777;53.570;9.984;2022-09-09T06:18:40;100685.25;;;14.93;100.00
65190;BME280;51777;53.570;9.984;2022-09-09T06:21:11;100697.00;;;14.89;100.00
65190;BME280;51777;53.570;9.984;2022-09-09T06:23:39;100684.31;;;14.86;100.00
65190;BME280;51777;53.570;9.984;2022-09-09T06:26:11;100690.34;;;14.86;100.00
65190;BME280;51777;53.570;9.984;2022-09-09T06:28:37;100688.91;;;14.84;100.00
65190;BME280;51777;53.570;9.984;2022-09-09T06:31:05;100686.41;;;14.90;100.00
65190;BME280;51777;53.570;9.984;2022-09-09T06:33:35;100685.88;;;14.95;100.00
65190;BME280;51777;53.570;9.984;2022-09-09T06:36:03;100681.44;;;15.04;100.00
65190;BME280;51777;53.570;9.984;2022-09-09T06:38:31;100683.22;;;15.03;100.00
65190;BME280;51777;53.570;9.984;2022-09-09T06:40:58;100688.69;;;15.08;100.00
65190;BME280;51777;53.570;9.984;2022-09-09T06:43:25;100683.78;;;15.13;100.00
65190;BME280;51777;53.570;9.984;2022-09-09T06:48:23;100686.84;;;15.17;100.00
65190;BME280;51777;53.570;9.984;2022-09-09T06:50:59;100684.06;;;15.18;100.00
65190;BME280;51777;53.570;9.984;2022-09-09T06:53:24;100683.28;;;15.33;100.00
65190;BME280;51777;53.570;9.984;2022-09-09T06:55:51;100683.47;;;15.46;100.00
65190;BME280;51777;53.570;9.984;2022-09-09T06:58:16;100681.19;;;15.66;100.00
65190;BME280;51777;53.570;9.984;2022-09-09T07:00:42;100686.56;;;15.79;100.00
65190;BME280;51777;53.570;9.984;2022-09-09T07:03:07;100687.34;;;15.94;100.00
65190;BME280;51777;53.570;9.984;2022-09-09T07:05:32;100686.00;;;16.13;100.00
65190;BME280;51777;53.570;9.984;2022-09-09T07:07:58;100692.56;;;16.45;100.00
65190;BME280;51777;53.570;9.984;2022-09-09T07:10:24;100689.94;;;16.81;100.00
65190;BME280;51777;53.570;9.984;2022-09-09T07:12:53;100692.91;;;16.99;100.00
65190;BME280;51777;53.570;9.984;2022-09-09T07:15:20;100694.53;;;17.00;100.00
65190;BME280;51777;53.570;9.984;2022-09-09T07:17:47;100701.28;;;16.95;100.00
65190;BME280;51777;53.570;9.984;2022-09-09T07:20:14;100700.91;;;16.98;100.00
65190;BME280;51777;53.570;9.984;2022-09-09T07:22:40;100705.13;;;16.99;100.00
65190;BME280;51777;53.570;9.984;2022-09-09T07:25:07;100702.81;;;17.11;100.00
65190;BME280;51777;53.570;9.984;2022-09-09T07:27:32;100702.50;;;17.20;100.00
65190;BME280;51777;53.570;9.984;2022-09-09T07:29:58;100710.03;;;17.30;100.00
65190;BME280;51777;53.570;9.984;2022-09-09T07:32:24;100704.28;;;17.41;100.00
65190;BME280;51777;53.570;9.984;2022-09-09T07:34:51;100701.53;;;17.49;100.00
65190;BME280;51777;53.570;9.984;2022-09-09T07:37:17;100701.72;;;17.82;100.00
65190;BME280;51777;53.570;9.984;2022-09-09T07:39:43;100704.50;;;18.15;100.00
65190;BME280;51777;53.570;9.984;2022-09-09T07:42:09;100702.75;;;18.36;99.08
65190;BME280;51777;53.570;9.984;2022-09-09T07:44:36;100708.38;;;18.33;98.57
65190;BME280;51777;53.570;9.984;2022-09-09T07:47:02;100722.41;;;18.18;98.92
65190;BME280;51777;53.570;9.984;2022-09-09T07:52:04;100721.13;;;18.01;100.00
65190;BME280;51777;53.570;9.984;2022-09-09T07:54:29;100728.75;;;17.96;100.00
65190;BME280;51777;53.570;9.984;2022-09-09T07:56:55;100721.50;;;17.92;100.00
65190;BME280;51777;53.570;9.984;2022-09-09T07:59:20;100733.38;;;17.94;100.00
65190;BME280;51777;53.570;9.984;2022-09-09T08:01:50;100726.97;;;18.03;99.09
65190;BME280;51777;53.570;9.984;2022-09-09T08:04:18;100734.88;;;18.16;99.96
65190;BME280;51777;53.570;9.984;2022-09-09T08:06:47;100738.16;;;18.25;99.57
65190;BME280;51777;53.570;9.984;2022-09-09T08:09:13;100739.56;;;18.34;99.51
65190;BME280;51777;53.570;9.984;2022-09-09T08:11:40;100733.41;;;18.55;97.15
65190;BME280;51777;53.570;9.984;2022-09-09T08:14:07;100738.09;;;18.66;97.90
65190;BME280;51777;53.570;9.984;2022-09-09T08:16:36;100741.56;;;18.93;96.58
65190;BME280;51777;53.570;9.984;2022-09-09T08:19:03;100742.00;;;19.23;92.05
65190;BME280;51777;53.570;9.984;2022-09-09T08:21:30;100749.03;;;19.56;91.24
65190;BME280;51777;53.570;9.984;2022-09-09T08:23:58;100748.78;;;19.97;91.25
65190;BME280;51777;53.570;9.984;2022-09-09T08:26:27;100761.16;;;20.35;85.87
65190;BME280;51777;53.570;9.984;2022-09-09T08:28:55;100749.41;;;20.37;85.51
65190;BME280;51777;53.570;9.984;2022-09-09T08:31:27;100756.06;;;20.33;85.50
65190;BME280;51777;53.570;9.984;2022-09-09T08:33:57;100762.41;;;20.19;85.01
65190;BME280;51777;53.570;9.984;2022-09-09T08:36:26;100759.63;;;20.07;86.80
65190;BME280;51777;53.570;9.984;2022-09-09T08:38:54;100761.59;;;20.18;87.60
65190;BME280;51777;53.570;9.984;2022-09-09T08:50:19;100763.78;;;20.28;84.15
65190;BME280;51777;53.570;9.984;2022-09-09T08:58:27;100764.75;;;20.34;83.58
65190;BME280;51777;53.570;9.984;2022-09-09T09:04:02;100768.34;;;21.16;77.22
65190;BME280;51777;53.570;9.984;2022-09-09T09:09:11;100780.38;;;20.73;79.06
65190;BME280;51777;53.570;9.984;2022-09-09T09:11:54;100774.16;;;20.93;78.78
65190;BME280;51777;53.570;9.984;2022-09-09T09:14:24;100775.97;;;21.24;75.50
65190;BME280;51777;53.570;9.984;2022-09-09T09:17:13;100776.50;;;21.57;74.37
65190;BME280;51777;53.570;9.984;2022-09-09T09:19:39;100778.59;;;22.47;70.94
65190;BME280;51777;53.570;9.984;2022-09-09T09:27:49;100778.22;;;23.03;64.33
65190;BME280;51777;53.570;9.984;2022-09-09T09:30:18;100780.38;;;22.83;63.22
65190;BME280;51777;53.570;9.984;2022-09-09T09:35:15;100785.41;;;23.61;61.04
65190;BME280;51777;53.570;9.984;2022-09-09T09:37:41;100784.22;;;23.22;64.03
65190;BME280;51777;53.570;9.984;2022-09-09T09:40:14;100789.25;;;22.82;64.20
65190;BME280;51777;53.570;9.984;2022-09-09T09:42:52;100784.47;;;22.31;66.04
65190;BME280;51777;53.570;9.984;2022-09-09T09:45:28;100785.19;;;22.19;66.58
65190;BME280;51777;53.570;9.984;2022-09-09T09:48:03;100783.72;;;22.05;66.86
65190;BME280;51777;53.570;9.984;2022-09-09T09:50:30;100772.84;;;21.83;68.37
65190;BME280;51777;53.570;9.984;2022-09-09T09:53:02;100767.84;;;21.75;69.08
65190;BME280;51777;53.570;9.984;2022-09-09T09:55:30;100781.81;;;22.49;65.63
65190;BME280;51777;53.570;9.984;2022-09-09T09:58:06;100784.03;;;23.70;62.43
65190;BME280;51777;53.570;9.984;2022-09-09T10:00:33;100791.34;;;25.34;56.44
65190;BME280;51777;53.570;9.984;2022-09-09T10:03:14;100789.63;;;26.22;52.36
65190;BME280;51777;53.570;9.984;2022-09-09T10:05:45;100793.53;;;26.37;53.04
65190;BME280;51777;53.570;9.984;2022-09-09T10:08:14;100790.56;;;26.55;52.23
65190;BME280;51777;53.570;9.984;2022-09-09T10:11:39;100788.44;;;26.57;49.73
65190;BME280;51777;53.570;9.984;2022-09-09T10:13:59;100799.22;;;28.36;47.55
65190;BME280;51777;53.570;9.984;2022-09-09T10:17:41;100798.00;;;28.89;43.42
65190;BME280;51777;53.570;9.984;2022-09-09T10:19:36;100800.41;;;29.16;43.05
65190;BME280;51777;53.570;9.984;2022-09-09T10:22:28;100792.56;;;28.38;44.55
65190;BME280;51777;53.570;9.984;2022-09-09T10:25:21;100789.81;;;28.13;45.55
65190;BME280;51777;53.570;9.984;2022-09-09T10:28:15;100782.81;;;27.44;46.83
65190;BME280;51777;53.570;9.984;2022-09-09T10:36:16;100781.59;;;27.20;48.01
65190;BME280;51777;53.570;9.984;2022-09-09T10:38:46;100787.78;;;28.30;45.41
65190;BME280;51777;53.570;9.984;2022-09-09T10:41:34;100790.56;;;28.91;43.03
65190;BME280;51777;53.570;9.984;2022-09-09T10:44:26;100785.47;;;29.25;41.68
65190;BME280;51777;53.570;9.984;2022-09-09T10:52:23;100780.31;;;28.37;45.41
65190;BME280;51777;53.570;9.984;2022-09-09T10:54:57;100780.69;;;29.02;42.88
65190;BME280;51777;53.570;9.984;2022-09-09T10:57:46;100787.31;;;28.79;41.74
65190;BME280;51777;53.570;9.984;2022-09-09T11:00:46;100775.66;;;27.50;44.91
65190;BME280;51777;53.570;9.984;2022-09-09T11:03:20;100771.44;;;27.12;47.50
65190;BME280;51777;53.570;9.984;2022-09-09T11:05:54;100764.91;;;26.39;47.97
65190;BME280;51777;53.570;9.984;2022-09-09T11:08:25;100763.16;;;26.27;46.95
65190;BME280;51777;53.570;9.984;2022-09-09T11:11:09;100759.31;;;25.69;48.57
65190;BME280;51777;53.570;9.984;2022-09-09T11:13:47;100758.13;;;25.27;49.98
65190;BME280;51777;53.570;9.984;2022-09-09T11:21:58;100774.38;;;30.87;37.60
65190;BME280;51777;53.570;9.984;2022-09-09T11:24:56;100773.00;;;31.71;35.95
65190;BME280;51777;53.570;9.984;2022-09-09T11:27:28;100779.78;;;32.49;34.36
65190;BME280;51777;53.570;9.984;2022-09-09T11:30:16;100776.69;;;32.42;34.16
65190;BME280;51777;53.570;9.984;2022-09-09T11:38:21;100777.47;;;29.41;39.15
65190;BME280;51777;53.570;9.984;2022-09-09T11:41:01;100773.78;;;27.93;41.67
65190;BME280;51777;53.570;9.984;2022-09-09T11:43:44;100765.31;;;26.79;45.32
65190;BME280;51777;53.570;9.984;2022-09-09T11:46:12;100767.88;;;26.20;47.76
65190;BME280;51777;53.570;9.984;2022-09-09T11:48:42;100768.13;;;25.58;49.90
65190;BME280;51777;53.570;9.984;2022-09-09T11:53:51;100757.38;;;24.36;55.54
65190;BME280;51777;53.570;9.984;2022-09-09T11:56:43;100760.94;;;23.89;57.16
65190;BME280;51777;53.570;9.984;2022-09-09T12:01:55;100760.59;;;23.86;58.44
65190;BME280;51777;53.570;9.984;2022-09-09T12:06:55;100758.88;;;26.21;52.13
65190;BME280;51777;53.570;9.984;2022-09-09T12:09:31;100750.50;;;24.97;54.59
65190;BME280;51777;53.570;9.984;2022-09-09T12:14:38;100750.75;;;23.58;59.30
65190;BME280;51777;53.570;9.984;2022-09-09T12:17:18;100745.09;;;23.31;60.52
65190;BME280;51777;53.570;9.984;2022-09-09T12:19:46;100745.09;;;23.07;61.78
65190;BME280;51777;53.570;9.984;2022-09-09T12:25:09;100744.06;;;23.08;63.23
65190;BME280;51777;53.570;9.984;2022-09-09T12:27:47;100749.56;;;23.19;63.55
65190;BME280;51777;53.570;9.984;2022-09-09T12:30:16;100757.84;;;23.22;64.90
65190;BME280;51777;53.570;9.984;2022-09-09T12:32:42;100757.47;;;24.00;61.91
65190;BME280;51777;53.570;9.984;2022-09-09T12:35:21;100765.03;;;27.92;49.64
65190;BME280;51777;53.570;9.984;2022-09-09T12:37:52;100771.06;;;28.60;46.85
65190;BME280;51777;53.570;9.984;2022-09-09T12:40:32;100766.03;;;27.02;50.19
65190;BME280;51777;53.570;9.984;2022-09-09T12:43:01;100755.16;;;25.79;55.13
65190;BME280;51777;53.570;9.984;2022-09-09T12:45:28;100739.59;;;24.76;57.10
65190;BME280;51777;53.570;9.984;2022-09-09T12:48:09;100736.84;;;24.14;60.30
65190;BME280;51777;53.570;9.984;2022-09-09T12:50:38;100739.81;;;23.78;61.13
65190;BME280;51777;53.570;9.984;2022-09-09T12:53:31;100740.03;;;23.06;61.73
65190;BME280;51777;53.570;9.984;2022-09-09T12:56:07;100735.69;;;22.58;63.94
65190;BME280;51777;53.570;9.984;2022-09-09T12:58:35;100731.72;;;22.19;65.29
65190;BME280;51777;53.570;9.984;2022-09-09T13:01:03;100726.97;;;21.91;65.83
65190;BME280;51777;53.570;9.984;2022-09-09T13:03:31;100734.84;;;21.54;67.33
65190;BME280;51777;53.570;9.984;2022-09-09T13:05:59;100735.47;;;21.31;69.03
65190;BME280;51777;53.570;9.984;2022-09-09T13:08:35;100736.47;;;21.05;70.71
65190;BME280;51777;53.570;9.984;2022-09-09T13:11:03;100739.63;;;20.89;72.66
65190;BME280;51777;53.570;9.984;2022-09-09T13:13:35;100729.44;;;20.74;74.26
65190;BME280;51777;53.570;9.984;2022-09-09T13:16:02;100740.63;;;20.57;76.39
65190;BME280;51777;53.570;9.984;2022-09-09T13:18:31;100735.66;;;20.42;77.47
65190;BME280;51777;53.570;9.984;2022-09-09T13:20:58;100730.66;;;20.27;78.36
65190;BME280;51777;53.570;9.984;2022-09-09T13:23:30;100738.19;;;20.17;79.47
65190;BME280;51777;53.570;9.984;2022-09-09T13:25:58;100739.66;;;20.00;82.60
65190;BME280;51777;53.570;9.984;2022-09-09T13:28:26;100757.28;;;19.79;87.54
65190;BME280;51777;53.570;9.984;2022-09-09T13:30:57;100771.84;;;19.62;92.27
65190;BME280;51777;53.570;9.984;2022-09-09T13:33:31;100780.31;;;19.24;98.97
65190;BME280;51777;53.570;9.984;2022-09-09T13:36:04;100770.59;;;18.92;100.00
65190;BME280;51777;53.570;9.984;2022-09-09T13:38:55;100778.53;;;18.57;100.00
65190;BME280;51777;53.570;9.984;2022-09-09T13:41:22;100787.69;;;18.33;100.00
65190;BME280;51777;53.570;9.984;2022-09-09T13:43:49;100784.81;;;18.22;100.00
65190;BME280;51777;53.570;9.984;2022-09-09T13:49:18;100785.75;;;18.01;100.00
65190;BME280;51777;53.570;9.984;2022-09-09T13:51:47;100788.91;;;17.96;100.00
65190;BME280;51777;53.570;9.984;2022-09-09T13:54:15;100779.63;;;17.87;100.00
65190;BME280;51777;53.570;9.984;2022-09-09T13:56:42;100777.38;;;17.84;100.00
65190;BME280;51777;53.570;9.984;2022-09-09T13:59:13;100769.31;;;17.79;100.00
65190;BME280;51777;53.570;9.984;2022-09-09T14:01:40;100774.53;;;17.79;100.00
65190;BME280;51777;53.570;9.984;2022-09-09T14:04:06;100770.91;;;17.80;100.00
65190;BME280;51777;53.570;9.984;2022-09-09T14:06:32;100771.53;;;17.82;100.00
65190;BME280;51777;53.570;9.984;2022-09-09T14:08:57;100759.84;;;17.78;100.00
65190;BME280;51777;53.570;9.984;2022-09-09T14:11:24;100755.63;;;17.77;100.00
65190;BME280;51777;53.570;9.984;2022-09-09T14:13:49;100755.81;;;17.75;100.00
65190;BME280;51777;53.570;9.984;2022-09-09T14:16:16;100749.34;;;17.71;100.00
65190;BME280;51777;53.570;9.984;2022-09-09T14:18:43;100751.16;;;17.71;100.00
65190;BME280;51777;53.570;9.984;2022-09-09T14:21:09;100751.16;;;17.71;100.00
65190;BME280;51777;53.570;9.984;2022-09-09T14:23:35;100750.69;;;17.67;100.00
65190;BME280;51777;53.570;9.984;2022-09-09T14:26:01;100751.34;;;17.69;100.00
65190;BME280;51777;53.570;9.984;2022-09-09T14:28:26;100753.94;;;17.69;100.00
65190;BME280;51777;53.570;9.984;2022-09-09T14:30:53;100754.13;;;17.68;100.00
65190;BME280;51777;53.570;9.984;2022-09-09T14:33:19;100755.50;;;17.64;100.00
65190;BME280;51777;53.570;9.984;2022-09-09T14:35:44;100744.19;;;17.56;100.00
65190;BME280;51777;53.570;9.984;2022-09-09T14:38:11;100746.56;;;17.51;100.00
65190;BME280;51777;53.570;9.984;2022-09-09T14:40:37;100740.72;;;17.49;100.00